sensor_id;sensor_type;location;lat;lon;timestamp;P1;durP1;ratioP1;P2;durP2;ratioP2
11837;SDS011;5978;51.020;6.764;2023-08-06T00:00:12;4.33;;;3.90;;
11837;SDS011;5978;51.020;6.764;2023-08-06T00:02:38;5.63;;;3.77;;
11837;SDS011;5978;51.020;6.764;2023-08-06T00:05:04;5.07;;;3.40;;
11837;SDS011;5978;51.020;6.764;2023-08-06T00:07:30;4.10;;;3.70;;
11837;SDS011;5978;51.020;6.764;2023-08-06T00:09:55;5.30;;;4.27;;
11837;SDS011;5978;51.020;6.764;2023-08-06T00:12:21;4.70;;;4.30;;
11837;SDS011;5978;51.020;6.764;2023-08-06T00:14:49;9.43;;;4.40;;
11837;SDS011;5978;51.020;6.764;2023-08-06T00:17:16;10.53;;;3.67;;
11837;SDS011;5978;51.020;6.764;2023-08-06T00:19:42;5.03;;;4.43;;
11837;SDS011;5978;51.020;6.764;2023-08-06T00:22:07;6.30;;;4.43;;
11837;SDS011;5978;51.020;6.764;2023-08-06T00:24:33;5.63;;;3.70;;
11837;SDS011;5978;51.020;6.764;2023-08-06T00:26:59;4.60;;;4.10;;
11837;SDS011;5978;51.020;6.764;2023-08-06T00:29:25;8.87;;;4.70;;
11837;SDS011;5978;51.020;6.764;2023-08-06T00:31:50;5.10;;;4.03;;
11837;SDS011;5978;51.020;6.764;2023-08-06T00:34:16;3.73;;;3.37;;
11837;SDS011;5978;51.020;6.764;2023-08-06T00:36:42;8.47;;;4.10;;
11837;SDS011;5978;51.020;6.764;2023-08-06T00:39:07;5.03;;;4.20;;
11837;SDS011;5978;51.020;6.764;2023-08-06T00:41:33;8.70;;;4.00;;
11837;SDS011;5978;51.020;6.764;2023-08-06T00:43:58;6.63;;;4.90;;
11837;SDS011;5978;51.020;6.764;2023-08-06T00:46:24;4.30;;;3.60;;
11837;SDS011;5978;51.020;6.764;2023-08-06T00:48:49;5.00;;;3.50;;
11837;SDS011;5978;51.020;6.764;2023-08-06T00:51:16;4.20;;;3.67;;
11837;SDS011;5978;51.020;6.764;2023-08-06T00:53:41;5.63;;;4.87;;
11837;SDS011;5978;51.020;6.764;2023-08-06T00:56:07;7.17;;;4.33;;
11837;SDS011;5978;51.020;6.764;2023-08-06T00:58:35;5.17;;;3.57;;
11837;SDS011;5978;51.020;6.764;2023-08-06T01:01:01;3.87;;;2.80;;
11837;SDS011;5978;51.020;6.764;2023-08-06T01:03:26;4.33;;;3.93;;
11837;SDS011;5978;51.020;6.764;2023-08-06T01:05:52;6.00;;;3.70;;
11837;SDS011;5978;51.020;6.764;2023-08-06T01:13:42;6.80;;;3.43;;
11837;SDS011;5978;51.020;6.764;2023-08-06T01:16:09;4.70;;;4.20;;
11837;SDS011;5978;51.020;6.764;2023-08-06T01:18:36;8.67;;;4.13;;
11837;SDS011;5978;51.020;6.764;2023-08-06T01:21:04;3.50;;;3.20;;
11837;SDS011;5978;51.020;6.764;2023-08-06T01:23:29;4.80;;;4.20;;
11837;SDS011;5978;51.020;6.764;2023-08-06T01:31:47;8.00;;;3.63;;
11837;SDS011;5978;51.020;6.764;2023-08-06T01:34:23;4.07;;;3.33;;
11837;SDS011;5978;51.020;6.764;2023-08-06T01:36:50;11.70;;;5.60;;
11837;SDS011;5978;51.020;6.764;2023-08-06T01:39:16;10.10;;;3.90;;
11837;SDS011;5978;51.020;6.764;2023-08-06T01:41:45;4.83;;;4.03;;
11837;SDS011;5978;51.020;6.764;2023-08-06T01:44:11;6.20;;;3.30;;
11837;SDS011;5978;51.020;6.764;2023-08-06T01:46:37;4.40;;;3.57;;
11837;SDS011;5978;51.020;6.764;2023-08-06T01:49:21;3.17;;;2.87;;
11837;SDS011;5978;51.020;6.764;2023-08-06T01:52:05;3.20;;;2.63;;
11837;SDS011;5978;51.020;6.764;2023-08-06T01:54:30;3.97;;;3.50;;
11837;SDS011;5978;51.020;6.764;2023-08-06T01:56:56;5.07;;;3.80;;
11837;SDS011;5978;51.020;6.764;2023-08-06T01:59:23;3.87;;;3.30;;
11837;SDS011;5978;51.020;6.764;2023-08-06T02:01:49;6.37;;;3.00;;
11837;SDS011;5978;51.020;6.764;2023-08-06T02:04:14;4.50;;;4.10;;
11837;SDS011;5978;51.020;6.764;2023-08-06T02:06:40;6.33;;;3.30;;
11837;SDS011;5978;51.020;6.764;2023-08-06T02:09:05;5.40;;;3.27;;
11837;SDS011;5978;51.020;6.764;2023-08-06T02:11:31;3.50;;;2.97;;
11837;SDS011;5978;51.020;6.764;2023-08-06T02:13:56;5.17;;;3.33;;
11837;SDS011;5978;51.020;6.764;2023-08-06T02:16:22;3.17;;;2.87;;
11837;SDS011;5978;51.020;6.764;2023-08-06T02:18:47;3.80;;;3.40;;
11837;SDS011;5978;51.020;6.764;2023-08-06T02:21:13;3.90;;;2.70;;
11837;SDS011;5978;51.020;6.764;2023-08-06T02:23:38;5.10;;;3.20;;
11837;SDS011;5978;51.020;6.764;2023-08-06T02:26:04;3.73;;;3.43;;
11837;SDS011;5978;51.020;6.764;2023-08-06T02:28:30;5.37;;;3.03;;
11837;SDS011;5978;51.020;6.764;2023-08-06T02:30:56;3.33;;;3.00;;
11837;SDS011;5978;51.020;6.764;2023-08-06T02:33:22;2.63;;;2.40;;
11837;SDS011;5978;51.020;6.764;2023-08-06T02:35:48;3.13;;;2.50;;
11837;SDS011;5978;51.020;6.764;2023-08-06T02:38:13;3.80;;;3.20;;
11837;SDS011;5978;51.020;6.764;2023-08-06T02:40:42;3.07;;;2.80;;
11837;SDS011;5978;51.020;6.764;2023-08-06T02:43:12;6.07;;;3.33;;
11837;SDS011;5978;51.020;6.764;2023-08-06T02:45:38;3.77;;;3.30;;
11837;SDS011;5978;51.020;6.764;2023-08-06T02:48:04;4.27;;;3.93;;
11837;SDS011;5978;51.020;6.764;2023-08-06T02:50:30;5.03;;;3.50;;
11837;SDS011;5978;51.020;6.764;2023-08-06T02:52:58;4.80;;;3.43;;
11837;SDS011;5978;51.020;6.764;2023-08-06T02:55:24;4.00;;;2.67;;
11837;SDS011;5978;51.020;6.764;2023-08-06T02:57:49;7.43;;;4.13;;
11837;SDS011;5978;51.020;6.764;2023-08-06T03:00:15;3.53;;;3.13;;
11837;SDS011;5978;51.020;6.764;2023-08-06T03:02:40;3.10;;;2.80;;
11837;SDS011;5978;51.020;6.764;2023-08-06T03:05:06;7.10;;;3.63;;
11837;SDS011;5978;51.020;6.764;2023-08-06T03:07:31;3.73;;;2.60;;
11837;SDS011;5978;51.020;6.764;2023-08-06T03:09:59;3.50;;;2.90;;
11837;SDS011;5978;51.020;6.764;2023-08-06T03:12:26;4.73;;;3.10;;
11837;SDS011;5978;51.020;6.764;2023-08-06T03:14:52;4.83;;;3.03;;
11837;SDS011;5978;51.020;6.764;2023-08-06T03:17:17;4.00;;;3.07;;
11837;SDS011;5978;51.020;6.764;2023-08-06T03:22:43;3.30;;;3.00;;
11837;SDS011;5978;51.020;6.764;2023-08-06T03:25:08;4.10;;;2.73;;
11837;SDS011;5978;51.020;6.764;2023-08-06T03:27:34;5.00;;;3.13;;
11837;SDS011;5978;51.020;6.764;2023-08-06T03:29:59;3.00;;;2.70;;
11837;SDS011;5978;51.020;6.764;2023-08-06T03:32:26;3.33;;;3.03;;
11837;SDS011;5978;51.020;6.764;2023-08-06T03:34:52;3.03;;;2.50;;
11837;SDS011;5978;51.020;6.764;2023-08-06T03:37:18;3.53;;;2.97;;
11837;SDS011;5978;51.020;6.764;2023-08-06T03:39:44;6.80;;;2.80;;
11837;SDS011;5978;51.020;6.764;2023-08-06T03:42:09;4.70;;;2.80;;
11837;SDS011;5978;51.020;6.764;2023-08-06T03:44:35;4.13;;;2.83;;
11837;SDS011;5978;51.020;6.764;2023-08-06T03:47:00;2.93;;;2.60;;
11837;SDS011;5978;51.020;6.764;2023-08-06T03:49:26;4.97;;;3.60;;
11837;SDS011;5978;51.020;6.764;2023-08-06T03:51:51;4.07;;;3.67;;
11837;SDS011;5978;51.020;6.764;2023-08-06T03:54:17;4.13;;;2.90;;
11837;SDS011;5978;51.020;6.764;2023-08-06T03:56:42;4.60;;;3.33;;
11837;SDS011;5978;51.020;6.764;2023-08-06T03:59:08;5.33;;;3.50;;
11837;SDS011;5978;51.020;6.764;2023-08-06T04:01:33;3.83;;;3.33;;
11837;SDS011;5978;51.020;6.764;2023-08-06T04:03:59;4.93;;;3.50;;
11837;SDS011;5978;51.020;6.764;2023-08-06T04:06:24;8.93;;;4.00;;
11837;SDS011;5978;51.020;6.764;2023-08-06T04:08:50;5.40;;;4.30;;
11837;SDS011;5978;51.020;6.764;2023-08-06T04:11:15;5.40;;;3.70;;
11837;SDS011;5978;51.020;6.764;2023-08-06T04:13:44;4.53;;;3.60;;
11837;SDS011;5978;51.020;6.764;2023-08-06T04:16:10;4.43;;;3.27;;
11837;SDS011;5978;51.020;6.764;2023-08-06T04:18:35;4.33;;;3.93;;
11837;SDS011;5978;51.020;6.764;2023-08-06T04:21:01;5.23;;;3.43;;
11837;SDS011;5978;51.020;6.764;2023-08-06T04:23:27;3.77;;;3.33;;
11837;SDS011;5978;51.020;6.764;2023-08-06T04:25:55;5.77;;;3.97;;
11837;SDS011;5978;51.020;6.764;2023-08-06T04:28:22;4.77;;;4.10;;
11837;SDS011;5978;51.020;6.764;2023-08-06T04:30:47;7.60;;;3.83;;
11837;SDS011;5978;51.020;6.764;2023-08-06T04:33:13;4.57;;;3.60;;
11837;SDS011;5978;51.020;6.764;2023-08-06T04:35:39;4.30;;;3.87;;
11837;SDS011;5978;51.020;6.764;2023-08-06T04:38:04;5.27;;;4.00;;
11837;SDS011;5978;51.020;6.764;2023-08-06T04:40:32;7.03;;;4.50;;
11837;SDS011;5978;51.020;6.764;2023-08-06T04:42:58;7.50;;;4.87;;
11837;SDS011;5978;51.020;6.764;2023-08-06T04:45:25;6.67;;;5.23;;
11837;SDS011;5978;51.020;6.764;2023-08-06T04:47:51;4.40;;;4.00;;
11837;SDS011;5978;51.020;6.764;2023-08-06T04:50:16;6.13;;;5.63;;
11837;SDS011;5978;51.020;6.764;2023-08-06T04:52:42;7.17;;;5.23;;
11837;SDS011;5978;51.020;6.764;2023-08-06T04:55:07;7.67;;;4.93;;
11837;SDS011;5978;51.020;6.764;2023-08-06T04:57:33;6.23;;;5.17;;
11837;SDS011;5978;51.020;6.764;2023-08-06T04:59:59;5.67;;;5.10;;
11837;SDS011;5978;51.020;6.764;2023-08-06T05:02:24;6.77;;;4.73;;
11837;SDS011;5978;51.020;6.764;2023-08-06T05:04:50;7.40;;;6.03;;
11837;SDS011;5978;51.020;6.764;2023-08-06T05:07:15;5.77;;;4.80;;
11837;SDS011;5978;51.020;6.764;2023-08-06T05:09:41;6.40;;;4.90;;
11837;SDS011;5978;51.020;6.764;2023-08-06T05:12:07;7.90;;;4.93;;
11837;SDS011;5978;51.020;6.764;2023-08-06T05:14:32;14.27;;;4.27;;
11837;SDS011;5978;51.020;6.764;2023-08-06T05:16:58;15.40;;;5.43;;
11837;SDS011;5978;51.020;6.764;2023-08-06T05:19:23;9.23;;;5.10;;
11837;SDS011;5978;51.020;6.764;2023-08-06T05:21:49;7.13;;;4.50;;
11837;SDS011;5978;51.020;6.764;2023-08-06T05:24:14;6.27;;;5.07;;
11837;SDS011;5978;51.020;6.764;2023-08-06T05:26:40;5.60;;;5.10;;
11837;SDS011;5978;51.020;6.764;2023-08-06T05:29:05;6.40;;;5.17;;
11837;SDS011;5978;51.020;6.764;2023-08-06T05:31:31;4.63;;;4.23;;
11837;SDS011;5978;51.020;6.764;2023-08-06T05:33:56;7.30;;;5.13;;
11837;SDS011;5978;51.020;6.764;2023-08-06T05:36:22;5.00;;;4.20;;
11837;SDS011;5978;51.020;6.764;2023-08-06T05:38:47;5.87;;;3.93;;
11837;SDS011;5978;51.020;6.764;2023-08-06T05:41:13;4.73;;;3.53;;
11837;SDS011;5978;51.020;6.764;2023-08-06T05:43:39;8.10;;;4.60;;
11837;SDS011;5978;51.020;6.764;2023-08-06T05:46:04;5.00;;;4.47;;
11837;SDS011;5978;51.020;6.764;2023-08-06T05:48:30;8.23;;;4.47;;
11837;SDS011;5978;51.020;6.764;2023-08-06T05:50:56;4.90;;;4.50;;
11837;SDS011;5978;51.020;6.764;2023-08-06T05:53:22;14.27;;;5.27;;
11837;SDS011;5978;51.020;6.764;2023-08-06T05:55:48;4.80;;;4.23;;
11837;SDS011;5978;51.020;6.764;2023-08-06T05:58:13;7.10;;;5.50;;
11837;SDS011;5978;51.020;6.764;2023-08-06T06:00:39;7.73;;;4.63;;
11837;SDS011;5978;51.020;6.764;2023-08-06T06:03:04;9.03;;;4.97;;
11837;SDS011;5978;51.020;6.764;2023-08-06T06:05:30;6.00;;;4.90;;
11837;SDS011;5978;51.020;6.764;2023-08-06T06:07:55;9.10;;;5.07;;
11837;SDS011;5978;51.020;6.764;2023-08-06T06:10:21;5.27;;;4.77;;
11837;SDS011;5978;51.020;6.764;2023-08-06T06:12:46;9.63;;;5.53;;
11837;SDS011;5978;51.020;6.764;2023-08-06T06:15:12;6.93;;;5.27;;
11837;SDS011;5978;51.020;6.764;2023-08-06T06:17:38;5.13;;;4.40;;
11837;SDS011;5978;51.020;6.764;2023-08-06T06:20:04;6.07;;;5.30;;
11837;SDS011;5978;51.020;6.764;2023-08-06T06:22:30;5.60;;;5.10;;
11837;SDS011;5978;51.020;6.764;2023-08-06T06:24:56;5.63;;;5.13;;
11837;SDS011;5978;51.020;6.764;2023-08-06T06:27:21;6.60;;;4.80;;
11837;SDS011;5978;51.020;6.764;2023-08-06T06:29:47;5.03;;;4.63;;
11837;SDS011;5978;51.020;6.764;2023-08-06T06:32:12;5.07;;;4.60;;
11837;SDS011;5978;51.020;6.764;2023-08-06T06:34:38;4.30;;;3.90;;
11837;SDS011;5978;51.020;6.764;2023-08-06T06:37:04;6.70;;;4.80;;
11837;SDS011;5978;51.020;6.764;2023-08-06T06:39:29;4.73;;;4.10;;
11837;SDS011;5978;51.020;6.764;2023-08-06T06:41:55;3.77;;;3.43;;
11837;SDS011;5978;51.020;6.764;2023-08-06T06:44:20;5.20;;;4.70;;
11837;SDS011;5978;51.020;6.764;2023-08-06T06:46:46;5.07;;;4.57;;
11837;SDS011;5978;51.020;6.764;2023-08-06T06:49:12;5.30;;;3.40;;
11837;SDS011;5978;51.020;6.764;2023-08-06T06:51:37;3.77;;;3.23;;
11837;SDS011;5978;51.020;6.764;2023-08-06T06:54:03;4.27;;;3.57;;
11837;SDS011;5978;51.020;6.764;2023-08-06T06:56:28;3.27;;;3.00;;
11837;SDS011;5978;51.020;6.764;2023-08-06T06:58:54;4.13;;;3.67;;
11837;SDS011;5978;51.020;6.764;2023-08-06T07:01:20;4.97;;;3.50;;
11837;SDS011;5978;51.020;6.764;2023-08-06T07:03:45;5.30;;;2.87;;
11837;SDS011;5978;51.020;6.764;2023-08-06T07:06:11;3.90;;;3.03;;
11837;SDS011;5978;51.020;6.764;2023-08-06T07:08:37;3.40;;;3.17;;
11837;SDS011;5978;51.020;6.764;2023-08-06T07:11:03;4.03;;;3.67;;
11837;SDS011;5978;51.020;6.764;2023-08-06T07:13:30;3.37;;;2.73;;
11837;SDS011;5978;51.020;6.764;2023-08-06T07:15:56;2.57;;;2.37;;
11837;SDS011;5978;51.020;6.764;2023-08-06T07:18:22;2.13;;;2.03;;
11837;SDS011;5978;51.020;6.764;2023-08-06T07:20:51;1.43;;;1.33;;
11837;SDS011;5978;51.020;6.764;2023-08-06T07:23:19;1.40;;;1.30;;
11837;SDS011;5978;51.020;6.764;2023-08-06T07:25:46;1.90;;;1.70;;
11837;SDS011;5978;51.020;6.764;2023-08-06T07:28:12;1.30;;;1.20;;
11837;SDS011;5978;51.020;6.764;2023-08-06T07:30:38;3.77;;;1.37;;
11837;SDS011;5978;51.020;6.764;2023-08-06T07:33:05;1.77;;;1.43;;
11837;SDS011;5978;51.020;6.764;2023-08-06T07:35:31;1.77;;;1.47;;
11837;SDS011;5978;51.020;6.764;2023-08-06T07:37:57;1.00;;;0.90;;
11837;SDS011;5978;51.020;6.764;2023-08-06T07:40:22;1.30;;;1.10;;
11837;SDS011;5978;51.020;6.764;2023-08-06T07:42:48;1.20;;;1.03;;
11837;SDS011;5978;51.020;6.764;2023-08-06T07:45:14;2.13;;;1.40;;
11837;SDS011;5978;51.020;6.764;2023-08-06T07:47:39;1.50;;;1.40;;
11837;SDS011;5978;51.020;6.764;2023-08-06T07:50:05;1.60;;;1.50;;
11837;SDS011;5978;51.020;6.764;2023-08-06T07:52:31;2.47;;;2.10;;
11837;SDS011;5978;51.020;6.764;2023-08-06T07:54:56;2.50;;;2.30;;
11837;SDS011;5978;51.020;6.764;2023-08-06T07:57:22;1.70;;;1.60;;
11837;SDS011;5978;51.020;6.764;2023-08-06T07:59:48;1.90;;;1.67;;
11837;SDS011;5978;51.020;6.764;2023-08-06T08:02:13;1.80;;;1.70;;
11837;SDS011;5978;51.020;6.764;2023-08-06T08:04:54;1.30;;;1.20;;
11837;SDS011;5978;51.020;6.764;2023-08-06T08:07:20;1.37;;;1.10;;
11837;SDS011;5978;51.020;6.764;2023-08-06T08:09:45;2.53;;;1.50;;
11837;SDS011;5978;51.020;6.764;2023-08-06T08:12:13;1.20;;;1.10;;
11837;SDS011;5978;51.020;6.764;2023-08-06T08:14:38;1.83;;;1.60;;
11837;SDS011;5978;51.020;6.764;2023-08-06T08:17:04;1.70;;;1.40;;
11837;SDS011;5978;51.020;6.764;2023-08-06T08:19:31;1.33;;;1.23;;
11837;SDS011;5978;51.020;6.764;2023-08-06T08:21:57;1.80;;;1.70;;
11837;SDS011;5978;51.020;6.764;2023-08-06T08:24:22;1.50;;;1.40;;
11837;SDS011;5978;51.020;6.764;2023-08-06T08:26:51;1.57;;;1.47;;
11837;SDS011;5978;51.020;6.764;2023-08-06T08:29:21;1.60;;;1.50;;
11837;SDS011;5978;51.020;6.764;2023-08-06T08:31:46;1.70;;;1.60;;
11837;SDS011;5978;51.020;6.764;2023-08-06T08:34:14;1.83;;;1.73;;
11837;SDS011;5978;51.020;6.764;2023-08-06T08:36:40;2.13;;;2.03;;
11837;SDS011;5978;51.020;6.764;2023-08-06T08:39:06;3.43;;;3.13;;
11837;SDS011;5978;51.020;6.764;2023-08-06T08:41:31;3.00;;;2.80;;
11837;SDS011;5978;51.020;6.764;2023-08-06T08:43:58;2.87;;;2.67;;
11837;SDS011;5978;51.020;6.764;2023-08-06T08:46:34;3.53;;;3.23;;
11837;SDS011;5978;51.020;6.764;2023-08-06T08:49:03;3.97;;;3.63;;
11837;SDS011;5978;51.020;6.764;2023-08-06T08:51:29;7.40;;;4.80;;
11837;SDS011;5978;51.020;6.764;2023-08-06T08:53:56;6.50;;;5.90;;
11837;SDS011;5978;51.020;6.764;2023-08-06T08:56:22;7.33;;;6.30;;
11837;SDS011;5978;51.020;6.764;2023-08-06T08:58:48;7.10;;;6.40;;
11837;SDS011;5978;51.020;6.764;2023-08-06T09:01:15;6.53;;;6.00;;
11837;SDS011;5978;51.020;6.764;2023-08-06T09:03:40;6.80;;;6.23;;
11837;SDS011;5978;51.020;6.764;2023-08-06T09:06:08;7.40;;;6.70;;
11837;SDS011;5978;51.020;6.764;2023-08-06T09:08:36;8.90;;;5.70;;
11837;SDS011;5978;51.020;6.764;2023-08-06T09:11:07;6.50;;;5.83;;
11837;SDS011;5978;51.020;6.764;2023-08-06T09:13:35;4.87;;;4.47;;
11837;SDS011;5978;51.020;6.764;2023-08-06T09:16:02;4.20;;;3.90;;
11837;SDS011;5978;51.020;6.764;2023-08-06T09:18:31;3.97;;;3.67;;
11837;SDS011;5978;51.020;6.764;2023-08-06T09:20:57;4.10;;;3.10;;
11837;SDS011;5978;51.020;6.764;2023-08-06T09:23:32;2.70;;;2.50;;
11837;SDS011;5978;51.020;6.764;2023-08-06T09:25:58;3.27;;;2.50;;
11837;SDS011;5978;51.020;6.764;2023-08-06T09:28:30;2.60;;;2.40;;
11837;SDS011;5978;51.020;6.764;2023-08-06T09:31:03;3.10;;;2.60;;
11837;SDS011;5978;51.020;6.764;2023-08-06T09:33:29;2.73;;;1.70;;
11837;SDS011;5978;51.020;6.764;2023-08-06T09:35:54;2.07;;;1.97;;
11837;SDS011;5978;51.020;6.764;2023-08-06T09:38:20;3.60;;;3.00;;
11837;SDS011;5978;51.020;6.764;2023-08-06T09:40:46;8.67;;;3.67;;
11837;SDS011;5978;51.020;6.764;2023-08-06T09:43:12;2.93;;;2.73;;
11837;SDS011;5978;51.020;6.764;2023-08-06T09:45:38;3.43;;;2.23;;
11837;SDS011;5978;51.020;6.764;2023-08-06T09:48:05;2.20;;;1.50;;
11837;SDS011;5978;51.020;6.764;2023-08-06T09:50:32;2.30;;;1.13;;
11837;SDS011;5978;51.020;6.764;2023-08-06T09:53:04;2.07;;;1.10;;
11837;SDS011;5978;51.020;6.764;2023-08-06T09:55:30;1.83;;;1.10;;
11837;SDS011;5978;51.020;6.764;2023-08-06T09:57:58;1.07;;;0.90;;
11837;SDS011;5978;51.020;6.764;2023-08-06T10:00:24;2.50;;;1.17;;
11837;SDS011;5978;51.020;6.764;2023-08-06T10:02:50;1.40;;;0.90;;
11837;SDS011;5978;51.020;6.764;2023-08-06T10:05:19;1.93;;;0.80;;
11837;SDS011;5978;51.020;6.764;2023-08-06T10:07:46;0.90;;;0.70;;
11837;SDS011;5978;51.020;6.764;2023-08-06T10:10:14;1.07;;;0.70;;
11837;SDS011;5978;51.020;6.764;2023-08-06T10:12:40;0.90;;;0.80;;
11837;SDS011;5978;51.020;6.764;2023-08-06T10:15:15;0.80;;;0.73;;
11837;SDS011;5978;51.020;6.764;2023-08-06T10:17:45;0.97;;;0.87;;
11837;SDS011;5978;51.020;6.764;2023-08-06T10:20:15;1.03;;;0.93;;
11837;SDS011;5978;51.020;6.764;2023-08-06T10:22:43;1.40;;;0.80;;
11837;SDS011;5978;51.020;6.764;2023-08-06T10:25:10;2.70;;;1.10;;
11837;SDS011;5978;51.020;6.764;2023-08-06T10:27:39;3.00;;;1.30;;
11837;SDS011;5978;51.020;6.764;2023-08-06T10:30:24;2.97;;;1.50;;
11837;SDS011;5978;51.020;6.764;2023-08-06T10:38:26;2.13;;;1.30;;
11837;SDS011;5978;51.020;6.764;2023-08-06T10:43:33;2.40;;;1.83;;
11837;SDS011;5978;51.020;6.764;2023-08-06T10:46:01;2.60;;;2.30;;
11837;SDS011;5978;51.020;6.764;2023-08-06T10:53:51;3.20;;;2.90;;
11837;SDS011;5978;51.020;6.764;2023-08-06T10:56:18;4.23;;;3.00;;
11837;SDS011;5978;51.020;6.764;2023-08-06T10:58:45;5.03;;;3.67;;
11837;SDS011;5978;51.020;6.764;2023-08-06T11:01:12;2.63;;;2.40;;
11837;SDS011;5978;51.020;6.764;2023-08-06T11:03:38;7.60;;;3.17;;
11837;SDS011;5978;51.020;6.764;2023-08-06T11:06:04;3.27;;;2.80;;
11837;SDS011;5978;51.020;6.764;2023-08-06T11:08:36;3.37;;;3.07;;
11837;SDS011;5978;51.020;6.764;2023-08-06T11:11:09;4.60;;;3.43;;
11837;SDS011;5978;51.020;6.764;2023-08-06T11:13:46;6.23;;;3.70;;
11837;SDS011;5978;51.020;6.764;2023-08-06T11:16:16;3.90;;;3.20;;
11837;SDS011;5978;51.020;6.764;2023-08-06T11:18:43;5.20;;;2.83;;
11837;SDS011;5978;51.020;6.764;2023-08-06T11:21:09;3.43;;;3.13;;
11837;SDS011;5978;51.020;6.764;2023-08-06T11:23:38;4.03;;;2.90;;
11837;SDS011;5978;51.020;6.764;2023-08-06T11:26:05;5.70;;;2.83;;
11837;SDS011;5978;51.020;6.764;2023-08-06T11:28:31;3.90;;;3.50;;
11837;SDS011;5978;51.020;6.764;2023-08-06T11:30:57;6.23;;;3.67;;
11837;SDS011;5978;51.020;6.764;2023-08-06T11:33:27;4.80;;;3.50;;
11837;SDS011;5978;51.020;6.764;2023-08-06T11:35:56;5.43;;;3.80;;
11837;SDS011;5978;51.020;6.764;2023-08-06T11:38:27;5.13;;;3.70;;
11837;SDS011;5978;51.020;6.764;2023-08-06T11:40:54;6.27;;;3.20;;
11837;SDS011;5978;51.020;6.764;2023-08-06T11:43:19;6.23;;;3.23;;
11837;SDS011;5978;51.020;6.764;2023-08-06T11:45:47;4.63;;;2.73;;
11837;SDS011;5978;51.020;6.764;2023-08-06T11:48:13;3.23;;;2.77;;
11837;SDS011;5978;51.020;6.764;2023-08-06T11:50:39;3.50;;;2.60;;
11837;SDS011;5978;51.020;6.764;2023-08-06T11:53:05;4.50;;;2.40;;
11837;SDS011;5978;51.020;6.764;2023-08-06T11:55:30;3.80;;;2.87;;
11837;SDS011;5978;51.020;6.764;2023-08-06T11:57:57;4.10;;;2.23;;
11837;SDS011;5978;51.020;6.764;2023-08-06T12:00:26;4.07;;;2.27;;
11837;SDS011;5978;51.020;6.764;2023-08-06T12:02:52;2.67;;;2.17;;
11837;SDS011;5978;51.020;6.764;2023-08-06T12:05:18;3.83;;;2.10;;
11837;SDS011;5978;51.020;6.764;2023-08-06T12:07:52;2.97;;;2.37;;
11837;SDS011;5978;51.020;6.764;2023-08-06T12:10:21;5.47;;;2.70;;
11837;SDS011;5978;51.020;6.764;2023-08-06T12:12:47;4.53;;;2.20;;
11837;SDS011;5978;51.020;6.764;2023-08-06T12:15:13;2.97;;;2.37;;
11837;SDS011;5978;51.020;6.764;2023-08-06T12:17:39;7.63;;;2.80;;
11837;SDS011;5978;51.020;6.764;2023-08-06T12:20:05;2.00;;;1.80;;
11837;SDS011;5978;51.020;6.764;2023-08-06T12:22:32;3.07;;;2.77;;
11837;SDS011;5978;51.020;6.764;2023-08-06T12:25:04;3.07;;;2.17;;
11837;SDS011;5978;51.020;6.764;2023-08-06T12:27:35;2.80;;;2.10;;
11837;SDS011;5978;51.020;6.764;2023-08-06T12:30:02;2.67;;;1.67;;
11837;SDS011;5978;51.020;6.764;2023-08-06T12:32:29;2.17;;;1.97;;
11837;SDS011;5978;51.020;6.764;2023-08-06T12:34:54;6.13;;;1.90;;
11837;SDS011;5978;51.020;6.764;2023-08-06T12:37:20;3.30;;;2.20;;
11837;SDS011;5978;51.020;6.764;2023-08-06T12:39:46;3.40;;;2.30;;
11837;SDS011;5978;51.020;6.764;2023-08-06T12:42:12;5.73;;;2.57;;
11837;SDS011;5978;51.020;6.764;2023-08-06T12:44:37;4.27;;;2.93;;
11837;SDS011;5978;51.020;6.764;2023-08-06T12:47:03;6.43;;;2.50;;
11837;SDS011;5978;51.020;6.764;2023-08-06T12:49:29;2.33;;;2.03;;
11837;SDS011;5978;51.020;6.764;2023-08-06T12:51:56;4.80;;;2.77;;
11837;SDS011;5978;51.020;6.764;2023-08-06T12:54:23;8.33;;;2.87;;
11837;SDS011;5978;51.020;6.764;2023-08-06T12:56:49;5.00;;;2.50;;
11837;SDS011;5978;51.020;6.764;2023-08-06T12:59:15;2.30;;;2.00;;
11837;SDS011;5978;51.020;6.764;2023-08-06T13:01:42;2.63;;;2.03;;
11837;SDS011;5978;51.020;6.764;2023-08-06T13:04:08;3.30;;;2.10;;
11837;SDS011;5978;51.020;6.764;2023-08-06T13:06:34;2.40;;;2.20;;
11837;SDS011;5978;51.020;6.764;2023-08-06T13:09:04;2.53;;;2.33;;
11837;SDS011;5978;51.020;6.764;2023-08-06T13:11:34;3.00;;;2.20;;
11837;SDS011;5978;51.020;6.764;2023-08-06T13:16:45;3.50;;;2.73;;
11837;SDS011;5978;51.020;6.764;2023-08-06T13:19:11;4.10;;;2.33;;
11837;SDS011;5978;51.020;6.764;2023-08-06T13:24:06;3.47;;;3.17;;
11837;SDS011;5978;51.020;6.764;2023-08-06T13:26:32;5.17;;;3.40;;
11837;SDS011;5978;51.020;6.764;2023-08-06T13:28:58;4.23;;;3.10;;
11837;SDS011;5978;51.020;6.764;2023-08-06T13:34:27;6.30;;;4.20;;
11837;SDS011;5978;51.020;6.764;2023-08-06T13:36:53;6.57;;;4.10;;
11837;SDS011;5978;51.020;6.764;2023-08-06T13:39:18;5.47;;;3.90;;
11837;SDS011;5978;51.020;6.764;2023-08-06T13:41:45;8.50;;;4.30;;
11837;SDS011;5978;51.020;6.764;2023-08-06T13:44:10;6.07;;;4.30;;
11837;SDS011;5978;51.020;6.764;2023-08-06T13:46:38;5.90;;;5.17;;
11837;SDS011;5978;51.020;6.764;2023-08-06T13:49:04;3.97;;;3.60;;
11837;SDS011;5978;51.020;6.764;2023-08-06T13:51:30;4.60;;;4.20;;
11837;SDS011;5978;51.020;6.764;2023-08-06T13:53:55;5.30;;;4.30;;
11837;SDS011;5978;51.020;6.764;2023-08-06T13:56:22;7.80;;;4.50;;
11837;SDS011;5978;51.020;6.764;2023-08-06T13:58:48;11.87;;;3.87;;
11837;SDS011;5978;51.020;6.764;2023-08-06T14:01:16;10.30;;;4.17;;
11837;SDS011;5978;51.020;6.764;2023-08-06T14:03:43;7.30;;;3.67;;
11837;SDS011;5978;51.020;6.764;2023-08-06T14:06:09;5.80;;;3.60;;
11837;SDS011;5978;51.020;6.764;2023-08-06T14:08:35;3.70;;;3.30;;
11837;SDS011;5978;51.020;6.764;2023-08-06T14:11:00;10.10;;;4.00;;
11837;SDS011;5978;51.020;6.764;2023-08-06T14:13:26;6.23;;;2.10;;
11837;SDS011;5978;51.020;6.764;2023-08-06T14:15:52;5.33;;;2.37;;
11837;SDS011;5978;51.020;6.764;2023-08-06T14:18:17;7.00;;;2.20;;
11837;SDS011;5978;51.020;6.764;2023-08-06T14:20:43;5.27;;;2.10;;
11837;SDS011;5978;51.020;6.764;2023-08-06T14:23:09;3.00;;;1.87;;
11837;SDS011;5978;51.020;6.764;2023-08-06T14:25:35;7.90;;;2.13;;
11837;SDS011;5978;51.020;6.764;2023-08-06T14:28:01;3.30;;;2.13;;
11837;SDS011;5978;51.020;6.764;2023-08-06T14:30:26;2.83;;;1.87;;
11837;SDS011;5978;51.020;6.764;2023-08-06T14:32:52;5.13;;;1.83;;
11837;SDS011;5978;51.020;6.764;2023-08-06T14:35:18;4.73;;;2.00;;
11837;SDS011;5978;51.020;6.764;2023-08-06T14:37:43;5.23;;;2.20;;
11837;SDS011;5978;51.020;6.764;2023-08-06T14:40:10;3.00;;;1.90;;
11837;SDS011;5978;51.020;6.764;2023-08-06T14:42:36;2.10;;;1.90;;
11837;SDS011;5978;51.020;6.764;2023-08-06T14:45:02;2.27;;;1.70;;
11837;SDS011;5978;51.020;6.764;2023-08-06T14:47:28;2.83;;;1.80;;
11837;SDS011;5978;51.020;6.764;2023-08-06T14:49:54;3.20;;;2.40;;
11837;SDS011;5978;51.020;6.764;2023-08-06T14:52:20;5.50;;;2.33;;
11837;SDS011;5978;51.020;6.764;2023-08-06T14:54:45;5.37;;;2.10;;
11837;SDS011;5978;51.020;6.764;2023-08-06T14:57:11;2.70;;;1.83;;
11837;SDS011;5978;51.020;6.764;2023-08-06T14:59:38;2.30;;;1.80;;
11837;SDS011;5978;51.020;6.764;2023-08-06T15:02:05;3.90;;;1.30;;
11837;SDS011;5978;51.020;6.764;2023-08-06T15:04:31;3.60;;;1.20;;
11837;SDS011;5978;51.020;6.764;2023-08-06T15:06:56;3.50;;;1.40;;
11837;SDS011;5978;51.020;6.764;2023-08-06T15:12:20;2.17;;;1.40;;
11837;SDS011;5978;51.020;6.764;2023-08-06T15:14:48;4.70;;;1.37;;
11837;SDS011;5978;51.020;6.764;2023-08-06T15:17:19;2.97;;;1.40;;
11837;SDS011;5978;51.020;6.764;2023-08-06T15:22:44;3.10;;;1.27;;
11837;SDS011;5978;51.020;6.764;2023-08-06T15:25:10;8.23;;;2.07;;
11837;SDS011;5978;51.020;6.764;2023-08-06T15:27:35;3.30;;;1.67;;
11837;SDS011;5978;51.020;6.764;2023-08-06T15:30:02;1.50;;;1.40;;
11837;SDS011;5978;51.020;6.764;2023-08-06T15:32:28;2.70;;;1.33;;
11837;SDS011;5978;51.020;6.764;2023-08-06T15:34:54;5.57;;;1.67;;
11837;SDS011;5978;51.020;6.764;2023-08-06T15:37:20;2.43;;;1.73;;